Linden, Michigan
Current Conditions -  °F | °C
As of 12:53 PM on Sunday 25 Jan 2015 (Local Time) from KFNT Reporting Station
Clear Clear  
Wind Chill: 12°   Ceiling: Unl
Heat Index: 24°   Visibility: 10mi
Dew Point: 13°   Wind: 13mph
Humidity: 62%   Direction: 40°NE
Pressure: 29.92"   Gusts: NA
Location:  42.81°N, 83.78°W
Report Text: KFNT 251753Z 04011KT 10SM CLR M04/M11 A2992 RMK AO2 SLP143 T10441106 11033 21050 50009
Loading
Personal Weather Stations






























Interactive Weather Map New forecast layout! Learn more

10-Day Weather Forecast

Advertisements
Track Severe Weather on mobile